createdAt,value
2022-08-21T00:00:17.744Z,79.61
2022-08-21T00:02:50.565Z,78.66
2022-08-21T00:05:17.958Z,78.31
2022-08-21T00:07:45.637Z,77.59
2022-08-21T00:10:13.205Z,75.84
2022-08-21T00:12:41.082Z,76.29
2022-08-21T00:15:09.363Z,78.00
2022-08-21T00:17:36.930Z,77.87
2022-08-21T00:20:09.422Z,77.62
2022-08-21T00:22:37.196Z,77.20
2022-08-21T00:25:06.027Z,77.87
2022-08-21T00:27:33.752Z,78.76
2022-08-21T00:30:01.405Z,79.14
2022-08-21T00:32:29.045Z,79.05
2022-08-21T00:34:56.430Z,80.47
2022-08-21T00:37:24.041Z,81.27
2022-08-21T00:39:51.548Z,79.80
2022-08-21T00:42:18.957Z,79.81
2022-08-21T00:44:47.374Z,78.95
2022-08-21T00:47:16.542Z,80.89
2022-08-21T00:49:43.942Z,80.53
2022-08-21T00:52:20.706Z,79.56
2022-08-21T00:54:48.372Z,80.06
2022-08-21T00:57:20.814Z,79.59
2022-08-21T00:59:51.758Z,79.00
2022-08-21T01:02:19.553Z,80.00
2022-08-21T01:04:47.191Z,80.80
2022-08-21T01:07:14.543Z,80.49
2022-08-21T01:09:42.221Z,80.60
2022-08-21T01:12:09.973Z,79.02
2022-08-21T01:14:37.441Z,78.43
2022-08-21T01:17:05.233Z,79.29
2022-08-21T01:19:32.699Z,79.94
2022-08-21T01:22:00.853Z,79.29
2022-08-21T01:24:28.566Z,79.78
2022-08-21T01:26:56.021Z,80.16
2022-08-21T01:29:35.607Z,79.88
2022-08-21T01:32:09.376Z,79.87
2022-08-21T01:34:38.515Z,77.98
2022-08-21T01:37:06.150Z,78.84
2022-08-21T01:39:33.639Z,79.66
2022-08-21T01:42:01.032Z,78.48
2022-08-21T01:44:28.834Z,78.93
2022-08-21T01:46:58.527Z,77.32
2022-08-21T01:49:25.917Z,79.45
2022-08-21T01:51:53.528Z,80.25
2022-08-21T01:54:20.980Z,78.41
2022-08-21T01:56:50.217Z,80.54
2022-08-21T01:59:17.918Z,79.70
2022-08-21T02:01:45.308Z,77.63
2022-08-21T02:04:13.035Z,79.32
2022-08-21T02:06:40.448Z,77.79
2022-08-21T02:09:08.937Z,80.66
2022-08-21T02:11:36.831Z,79.70
2022-08-21T02:14:04.259Z,77.86
2022-08-21T02:16:31.651Z,81.29
2022-08-21T02:19:00.614Z,79.26
2022-08-21T02:21:27.969Z,79.39
2022-08-21T02:23:55.329Z,79.04
2022-08-21T02:26:22.962Z,78.22
2022-08-21T02:28:50.317Z,76.62
2022-08-21T02:31:17.746Z,78.49
2022-08-21T02:33:45.449Z,78.09
2022-08-21T02:36:12.949Z,78.02
2022-08-21T02:38:41.065Z,77.57
2022-08-21T02:41:12.073Z,77.96
2022-08-21T02:43:39.448Z,77.58
2022-08-21T02:46:07.095Z,78.51
2022-08-21T02:48:34.941Z,80.04
2022-08-21T02:51:03.822Z,78.24
2022-08-21T02:53:31.317Z,79.78
2022-08-21T02:56:00.290Z,79.48
2022-08-21T02:58:34.969Z,78.45
2022-08-21T03:01:02.664Z,78.40
2022-08-21T03:03:30.253Z,79.11
2022-08-21T03:05:57.774Z,81.25
2022-08-21T03:08:27.687Z,79.89
2022-08-21T03:10:55.340Z,80.85
2022-08-21T03:13:22.748Z,80.74
2022-08-21T03:15:50.412Z,80.70
2022-08-21T03:18:17.897Z,81.58
2022-08-21T03:20:46.138Z,81.65
2022-08-21T03:23:16.748Z,82.21
2022-08-21T03:25:46.775Z,80.26
2022-08-21T03:28:16.549Z,81.79
2022-08-21T03:30:44.928Z,81.44
2022-08-21T03:33:15.223Z,82.56
2022-08-21T03:35:43.913Z,82.46
2022-08-21T03:38:13.715Z,81.71
2022-08-21T03:40:42.580Z,83.09
2022-08-21T03:43:10.439Z,82.60
2022-08-21T03:45:38.388Z,80.39
2022-08-21T03:48:06.335Z,78.95
2022-08-21T03:50:41.124Z,81.94
2022-08-21T03:53:17.060Z,81.39
2022-08-21T03:55:46.754Z,81.89
2022-08-21T03:58:18.338Z,82.50
2022-08-21T04:00:47.151Z,83.46
2022-08-21T04:03:14.816Z,82.24
2022-08-21T04:05:42.534Z,82.87
2022-08-21T04:08:09.895Z,81.42
2022-08-21T04:10:38.174Z,80.85
2022-08-21T04:13:05.836Z,81.62
2022-08-21T04:15:33.274Z,81.24
2022-08-21T04:18:00.971Z,80.52
2022-08-21T04:20:28.535Z,81.74
2022-08-21T04:22:56.109Z,81.09
2022-08-21T04:25:24.031Z,80.18
2022-08-21T04:27:52.147Z,83.05
2022-08-21T04:30:19.809Z,80.54
2022-08-21T04:32:49.734Z,80.81
2022-08-21T04:35:19.298Z,80.97
2022-08-21T04:37:47.048Z,79.69
2022-08-21T04:40:15.397Z,79.82
2022-08-21T04:42:47.768Z,78.61
2022-08-21T04:45:24.098Z,77.56
2022-08-21T04:47:55.516Z,79.60
2022-08-21T04:50:31.026Z,79.16
2022-08-21T04:53:08.515Z,80.54
2022-08-21T04:55:36.164Z,80.62
2022-08-21T04:58:03.521Z,78.45
2022-08-21T05:00:30.881Z,77.14
2022-08-21T05:03:00.283Z,78.34
2022-08-21T05:05:30.200Z,77.80
2022-08-21T05:07:58.567Z,77.40
2022-08-21T05:10:26.074Z,78.34
2022-08-21T05:12:53.868Z,78.08
2022-08-21T05:15:21.844Z,78.43
2022-08-21T05:17:53.736Z,76.37
2022-08-21T05:20:28.813Z,76.84
2022-08-21T05:22:56.351Z,77.89
2022-08-21T05:25:24.043Z,77.94
2022-08-21T05:27:52.189Z,79.18
2022-08-21T05:30:20.836Z,77.67
2022-08-21T05:32:48.772Z,77.29
2022-08-21T05:35:16.437Z,76.11
2022-08-21T05:37:44.013Z,77.01
2022-08-21T05:40:21.295Z,77.33
2022-08-21T05:42:54.471Z,77.39
2022-08-21T05:45:39.280Z,76.60
2022-08-21T05:48:17.964Z,77.19
2022-08-21T05:50:45.779Z,77.18
2022-08-21T05:53:13.611Z,76.62
2022-08-21T05:55:45.202Z,76.78
2022-08-21T05:58:15.660Z,77.24
2022-08-21T06:00:43.559Z,76.82
2022-08-21T06:03:35.277Z,75.71
2022-08-21T06:06:02.759Z,73.89
2022-08-21T06:08:30.486Z,75.76
2022-08-21T06:10:59.010Z,74.73
2022-08-21T06:13:26.496Z,75.91
2022-08-21T06:16:09.133Z,75.69
2022-08-21T06:18:36.629Z,74.46
2022-08-21T06:21:04.357Z,73.72
2022-08-21T06:23:33.401Z,75.12
2022-08-21T06:26:02.134Z,72.88
2022-08-21T06:28:29.790Z,72.88
2022-08-21T06:30:57.146Z,74.73
2022-08-21T06:33:27.171Z,74.45
2022-08-21T06:35:56.913Z,74.77
2022-08-21T06:38:24.402Z,75.60
2022-08-21T06:40:51.787Z,73.36
2022-08-21T06:43:19.970Z,73.36
2022-08-21T06:45:47.330Z,73.16
2022-08-21T06:48:19.145Z,71.99
2022-08-21T06:50:47.751Z,71.41
2022-08-21T06:53:17.756Z,71.97
2022-08-21T06:55:45.229Z,71.53
2022-08-21T06:58:12.878Z,71.12
2022-08-21T07:00:41.701Z,70.37
2022-08-21T07:03:09.191Z,69.97
2022-08-21T07:05:36.832Z,69.07
2022-08-21T07:08:04.261Z,67.60
2022-08-21T07:10:31.611Z,67.25
2022-08-21T07:13:01.025Z,69.65
2022-08-21T07:15:30.434Z,70.29
2022-08-21T07:17:59.482Z,68.28
2022-08-21T07:20:30.772Z,70.34
2022-08-21T07:23:00.078Z,72.14
2022-08-21T07:25:27.861Z,69.75
2022-08-21T07:27:55.286Z,69.69
2022-08-21T07:30:22.829Z,67.81
2022-08-21T07:32:50.570Z,67.26
2022-08-21T07:35:18.808Z,66.44
2022-08-21T07:37:47.186Z,69.20
2022-08-21T07:40:15.130Z,68.33
2022-08-21T07:42:43.290Z,67.02
2022-08-21T07:45:10.816Z,66.29
2022-08-21T07:47:42.263Z,67.00
2022-08-21T07:50:12.216Z,66.75
2022-08-21T07:52:40.814Z,66.79
2022-08-21T07:55:09.717Z,66.77
2022-08-21T07:57:37.191Z,67.73
2022-08-21T08:00:06.042Z,64.39
2022-08-21T08:02:39.477Z,61.89
2022-08-21T08:05:10.091Z,63.21
2022-08-21T08:07:37.583Z,62.56
2022-08-21T08:10:06.469Z,60.20
2022-08-21T08:12:35.566Z,58.05
2022-08-21T08:15:03.674Z,55.41
2022-08-21T08:17:33.139Z,54.53
2022-08-21T08:20:03.810Z,54.25
2022-08-21T08:22:31.185Z,54.41
2022-08-21T08:24:58.862Z,55.29
2022-08-21T08:27:26.774Z,56.95
2022-08-21T08:29:54.270Z,57.92
2022-08-21T08:32:21.676Z,57.21
2022-08-21T08:34:49.774Z,55.90
2022-08-21T08:37:17.384Z,58.31
2022-08-21T08:39:45.494Z,58.29
2022-08-21T08:42:33.051Z,55.26
2022-08-21T08:45:11.705Z,52.81
2022-08-21T08:47:41.762Z,52.69
2022-08-21T08:50:18.733Z,51.02
2022-08-21T08:52:53.400Z,52.11
2022-08-21T08:55:27.460Z,51.82
2022-08-21T08:57:55.290Z,51.40
2022-08-21T09:00:23.246Z,49.32
2022-08-21T09:02:55.571Z,50.26
2022-08-21T09:06:01.406Z,54.89
2022-08-21T09:08:50.250Z,54.54
2022-08-21T09:11:27.349Z,54.35
2022-08-21T09:14:24.022Z,54.67
2022-08-21T09:17:19.701Z,55.58
2022-08-21T09:20:11.500Z,54.63
2022-08-21T09:22:41.205Z,55.23
2022-08-21T09:25:25.155Z,53.87
2022-08-21T09:27:52.804Z,54.24
2022-08-21T09:30:22.469Z,52.80
2022-08-21T09:32:49.975Z,49.31
2022-08-21T09:35:20.734Z,52.84
2022-08-21T09:37:52.843Z,52.33
2022-08-21T09:40:38.126Z,50.15
2022-08-21T09:43:14.814Z,48.47
2022-08-21T09:45:43.476Z,49.74
2022-08-21T09:48:16.084Z,51.00
2022-08-21T09:50:43.830Z,48.34
2022-08-21T09:53:33.833Z,46.76
2022-08-21T09:56:25.106Z,46.68
2022-08-21T09:58:52.700Z,48.96
2022-08-21T10:01:25.285Z,50.51
2022-08-21T10:04:11.267Z,50.92
2022-08-21T10:06:38.536Z,51.35
2022-08-21T10:09:21.507Z,53.10
2022-08-21T10:11:57.591Z,49.94
2022-08-21T10:14:42.837Z,48.79
2022-08-21T10:17:47.690Z,45.37
2022-08-21T10:20:23.279Z,45.67
2022-08-21T10:23:08.821Z,47.32
2022-08-21T10:26:14.089Z,47.95
2022-08-21T10:29:06.514Z,45.35
2022-08-21T10:31:43.126Z,43.88
2022-08-21T10:34:22.792Z,43.99
2022-08-21T10:37:17.784Z,42.20
2022-08-21T10:40:10.912Z,41.98
2022-08-21T10:43:00.270Z,45.78
2022-08-21T10:45:52.467Z,46.91
2022-08-21T10:48:37.889Z,51.15
2022-08-21T10:51:07.490Z,50.93
2022-08-21T10:53:42.276Z,52.82
2022-08-21T10:56:17.101Z,51.68
2022-08-21T10:59:05.909Z,55.87
2022-08-21T11:01:45.589Z,53.88
2022-08-21T11:04:17.715Z,54.49
2022-08-21T11:06:53.133Z,54.54
2022-08-21T11:09:21.902Z,55.54
2022-08-21T11:12:11.223Z,54.22
2022-08-21T11:14:56.232Z,54.04
2022-08-21T11:17:37.415Z,54.08
2022-08-21T11:20:09.629Z,55.41
2022-08-21T11:23:29.443Z,56.33
2022-08-21T11:26:01.938Z,56.72
2022-08-21T11:28:35.850Z,55.79
2022-08-21T11:31:16.605Z,55.44
2022-08-21T11:33:52.897Z,55.10
2022-08-21T11:36:26.725Z,56.17
2022-08-21T11:38:59.366Z,56.50
2022-08-21T11:41:32.054Z,55.83
2022-08-21T11:44:17.462Z,58.35
2022-08-21T11:46:51.129Z,57.69
2022-08-21T11:49:36.379Z,58.34
2022-08-21T11:52:09.758Z,57.18
2022-08-21T11:55:08.709Z,55.87
2022-08-21T11:57:41.645Z,57.63
2022-08-21T12:00:24.814Z,58.22
2022-08-21T12:02:54.866Z,56.99
2022-08-21T12:05:37.190Z,58.28
2022-08-21T12:08:12.444Z,58.30
2022-08-21T12:10:48.489Z,59.20
2022-08-21T12:13:35.749Z,59.92
2022-08-21T12:16:13.578Z,59.17
2022-08-21T12:18:41.599Z,58.71
2022-08-21T12:21:28.198Z,58.19
2022-08-21T12:24:02.025Z,59.91
2022-08-21T12:26:32.948Z,62.26
2022-08-21T12:29:11.857Z,60.43
2022-08-21T12:31:49.116Z,61.56
2022-08-21T12:34:16.797Z,59.74
2022-08-21T12:37:22.194Z,59.00
2022-08-21T12:39:50.400Z,59.61
2022-08-21T12:42:20.112Z,59.79
2022-08-21T12:44:55.672Z,61.17
2022-08-21T12:47:26.784Z,60.71
2022-08-21T12:50:16.410Z,59.74
2022-08-21T12:52:49.972Z,60.94
2022-08-21T12:55:25.938Z,59.99
2022-08-21T12:57:53.568Z,58.72
2022-08-21T13:00:23.017Z,61.05
2022-08-21T13:02:50.805Z,61.53
2022-08-21T13:05:25.490Z,60.10
2022-08-21T13:07:52.985Z,61.33
2022-08-21T13:10:30.886Z,59.72
2022-08-21T13:13:01.576Z,61.42
2022-08-21T13:15:40.942Z,59.86
2022-08-21T13:18:23.669Z,59.44
2022-08-21T13:20:51.548Z,61.59
2022-08-21T13:23:26.530Z,61.24
2022-08-21T13:25:54.266Z,61.44
2022-08-21T13:28:21.641Z,63.48
2022-08-21T13:30:54.077Z,62.48
2022-08-21T13:33:24.721Z,63.57
2022-08-21T13:36:08.467Z,65.30
2022-08-21T13:38:36.565Z,63.88
2022-08-21T13:41:29.690Z,65.86
2022-08-21T13:44:18.483Z,65.20
2022-08-21T13:46:49.310Z,64.63
2022-08-21T13:49:18.918Z,63.51
2022-08-21T13:51:47.639Z,64.79
2022-08-21T13:54:27.028Z,66.28
2022-08-21T13:56:54.976Z,66.67
2022-08-21T13:59:40.293Z,68.12
2022-08-21T14:02:16.275Z,70.18
2022-08-21T14:04:53.083Z,68.35
2022-08-21T14:07:41.296Z,72.85
2022-08-21T14:10:15.285Z,72.84
2022-08-21T14:12:45.434Z,75.87
2022-08-21T14:15:17.756Z,77.76
2022-08-21T14:17:45.300Z,79.40
2022-08-21T14:20:26.665Z,78.83
2022-08-21T14:22:54.058Z,81.21
2022-08-21T14:25:25.428Z,80.16
2022-08-21T14:27:54.806Z,80.81
2022-08-21T14:30:25.365Z,83.52
2022-08-21T14:32:52.993Z,79.31
2022-08-21T14:35:23.523Z,77.66
2022-08-21T14:37:53.966Z,77.24
2022-08-21T14:40:23.000Z,78.68
2022-08-21T14:42:50.881Z,78.39
2022-08-21T14:45:21.222Z,79.84
2022-08-21T14:47:52.430Z,79.02
2022-08-21T14:50:20.118Z,79.99
2022-08-21T14:52:48.657Z,79.90
2022-08-21T14:55:17.975Z,80.33
2022-08-21T14:57:49.368Z,78.56
2022-08-21T15:00:19.215Z,79.97
2022-08-21T15:02:46.655Z,80.36
2022-08-21T15:05:14.293Z,78.52
2022-08-21T15:07:45.545Z,79.85
2022-08-21T15:10:13.505Z,80.22
2022-08-21T15:12:42.122Z,78.56
2022-08-21T15:15:10.626Z,78.91
2022-08-21T15:17:38.138Z,82.15
2022-08-21T15:20:08.890Z,79.86
2022-08-21T15:22:36.656Z,79.49
2022-08-21T15:25:04.724Z,79.57
2022-08-21T15:27:32.376Z,80.44
2022-08-21T15:30:00.465Z,79.80
2022-08-21T15:32:29.229Z,79.22
2022-08-21T15:34:57.036Z,79.53
2022-08-21T15:37:24.792Z,79.69
2022-08-21T15:39:53.822Z,77.94
2022-08-21T15:42:21.748Z,77.75
2022-08-21T15:44:49.463Z,79.87
2022-08-21T15:47:19.221Z,79.09
2022-08-21T15:49:46.607Z,77.61
2022-08-21T15:52:18.536Z,79.40
2022-08-21T15:54:46.117Z,78.37
2022-08-21T15:57:20.314Z,78.80
2022-08-21T15:59:52.588Z,77.74
2022-08-21T16:02:23.151Z,79.37
2022-08-21T16:04:50.764Z,78.32
2022-08-21T16:07:19.315Z,79.10
2022-08-21T16:09:46.684Z,78.20
2022-08-21T16:12:18.434Z,78.40
2022-08-21T16:14:45.834Z,79.38
2022-08-21T16:17:13.400Z,81.78
2022-08-21T16:19:42.890Z,80.09
2022-08-21T16:22:10.254Z,81.51
2022-08-21T16:24:37.669Z,82.21
2022-08-21T16:27:08.284Z,82.57
2022-08-21T16:29:36.749Z,82.33
2022-08-21T16:32:04.256Z,81.28
2022-08-21T16:34:32.290Z,82.49
2022-08-21T16:36:59.638Z,81.85
2022-08-21T16:39:27.089Z,85.19
2022-08-21T16:41:54.726Z,84.45
2022-08-21T16:44:22.082Z,85.28
2022-08-21T16:46:50.249Z,84.92
2022-08-21T16:49:17.902Z,86.40
2022-08-21T16:51:45.257Z,87.57
2022-08-21T16:54:13.935Z,84.83
2022-08-21T16:56:45.725Z,84.46
2022-08-21T16:59:14.961Z,83.66
2022-08-21T17:01:45.437Z,85.51
2022-08-21T17:04:13.237Z,84.70
2022-08-21T17:06:40.734Z,84.63
2022-08-21T17:09:08.764Z,85.32
2022-08-21T17:11:41.081Z,87.46
2022-08-21T17:14:22.062Z,89.37
2022-08-21T17:16:51.329Z,88.89
2022-08-21T17:19:19.402Z,88.65
2022-08-21T17:21:46.815Z,91.00
2022-08-21T17:24:15.609Z,87.84
2022-08-21T17:26:43.900Z,86.80
2022-08-21T17:29:14.398Z,86.38
2022-08-21T17:31:42.148Z,91.55
2022-08-21T17:34:11.497Z,89.78
2022-08-21T17:36:38.924Z,89.91
2022-08-21T17:39:06.286Z,92.43
2022-08-21T17:41:34.221Z,90.11
2022-08-21T17:44:06.212Z,89.30
2022-08-21T17:46:34.393Z,88.51
2022-08-21T17:49:01.844Z,86.29
2022-08-21T17:51:29.264Z,86.63
2022-08-21T17:53:57.216Z,89.59
2022-08-21T17:56:26.624Z,91.11
2022-08-21T17:58:54.017Z,90.17
2022-08-21T18:01:21.707Z,90.47
2022-08-21T18:03:49.480Z,90.28
2022-08-21T18:06:17.953Z,90.52
2022-08-21T18:08:46.395Z,92.39
2022-08-21T18:11:23.710Z,92.80
2022-08-21T18:13:52.257Z,90.23
2022-08-21T18:16:20.077Z,89.24
2022-08-21T18:18:48.899Z,89.89
2022-08-21T18:21:16.535Z,88.58
2022-08-21T18:23:45.318Z,88.10
2022-08-21T18:26:21.020Z,87.55
2022-08-21T18:28:48.671Z,88.82
2022-08-21T18:31:16.721Z,93.06
2022-08-21T18:33:56.940Z,89.31
2022-08-21T18:36:27.499Z,90.52
2022-08-21T18:39:13.477Z,88.76
2022-08-21T18:41:45.177Z,87.45
2022-08-21T18:44:13.841Z,89.43
2022-08-21T18:46:42.784Z,88.58
2022-08-21T18:49:11.438Z,89.87
2022-08-21T18:51:41.648Z,91.88
2022-08-21T18:54:13.231Z,91.17
2022-08-21T18:56:41.400Z,92.04
2022-08-21T18:59:10.197Z,90.85
2022-08-21T19:01:38.207Z,91.48
2022-08-21T19:04:08.985Z,91.59
2022-08-21T19:06:37.008Z,93.55
2022-08-21T19:09:09.303Z,94.87
2022-08-21T19:11:44.162Z,92.10
2022-08-21T19:14:15.754Z,93.74
2022-08-21T19:16:47.054Z,92.42
2022-08-21T19:19:16.240Z,91.04
2022-08-21T19:21:43.793Z,93.59
2022-08-21T19:24:17.301Z,91.77
2022-08-21T19:26:46.085Z,90.43
2022-08-21T19:29:13.609Z,91.43
2022-08-21T19:31:43.548Z,91.43
2022-08-21T19:34:16.641Z,93.48
2022-08-21T19:36:45.150Z,93.72
2022-08-21T19:39:14.371Z,91.76
2022-08-21T19:41:45.591Z,94.08
2022-08-21T19:44:20.437Z,92.14
2022-08-21T19:46:50.043Z,93.52
2022-08-21T19:49:22.166Z,92.28
2022-08-21T19:51:49.753Z,92.11
2022-08-21T19:54:22.985Z,93.54
2022-08-21T19:56:53.095Z,94.35
2022-08-21T19:59:24.676Z,92.02
2022-08-21T20:01:52.798Z,90.17
2022-08-21T20:04:21.810Z,92.78
2022-08-21T20:06:49.215Z,92.23
2022-08-21T20:09:17.223Z,91.32
2022-08-21T20:11:49.178Z,90.16
2022-08-21T20:14:18.627Z,90.43
2022-08-21T20:16:47.098Z,90.46
2022-08-21T20:19:15.581Z,89.79
2022-08-21T20:21:46.646Z,91.15
2022-08-21T20:24:16.705Z,89.25
2022-08-21T20:26:49.207Z,92.42
2022-08-21T20:32:08.033Z,93.39
2022-08-21T20:34:40.949Z,94.06
2022-08-21T20:37:09.143Z,91.65
2022-08-21T20:39:36.982Z,90.75
2022-08-21T20:42:05.028Z,91.50
2022-08-21T20:44:34.506Z,91.02
2022-08-21T20:47:08.704Z,92.88
2022-08-21T20:49:41.172Z,88.34
2022-08-21T20:52:08.593Z,90.84
2022-08-21T20:54:57.557Z,89.03
2022-08-21T20:57:57.122Z,89.38
2022-08-21T21:00:27.470Z,93.47
2022-08-21T21:03:30.374Z,96.12
2022-08-21T21:06:04.691Z,94.50
2022-08-21T21:08:42.052Z,94.86
2022-08-21T21:11:26.491Z,94.31
2022-08-21T21:14:00.302Z,93.59
2022-08-21T21:16:33.419Z,95.94
2022-08-21T21:19:03.381Z,94.16
2022-08-21T21:21:35.349Z,92.61
2022-08-21T21:24:08.193Z,92.93
2022-08-21T21:30:04.722Z,93.28
2022-08-21T21:32:32.829Z,90.54
2022-08-21T21:35:01.263Z,91.21
2022-08-21T21:37:33.761Z,90.84
2022-08-21T21:40:20.468Z,92.15
2022-08-21T21:43:09.868Z,90.96
2022-08-21T21:45:49.610Z,92.26
2022-08-21T21:48:26.849Z,95.50
2022-08-21T21:54:04.901Z,93.97
2022-08-21T21:56:48.311Z,92.20
2022-08-21T21:59:48.002Z,91.06
2022-08-21T22:02:47.906Z,90.35
2022-08-21T22:05:27.654Z,88.66
2022-08-21T22:08:07.881Z,91.11
2022-08-21T22:10:43.297Z,92.75
2022-08-21T22:13:38.620Z,90.14
2022-08-21T22:16:07.555Z,91.59
2022-08-21T22:18:45.203Z,93.13
2022-08-21T22:21:22.455Z,90.25
2022-08-21T22:23:54.196Z,95.17
2022-08-21T22:26:31.741Z,93.85
2022-08-21T22:29:04.975Z,93.62
2022-08-21T22:31:35.933Z,93.06
2022-08-21T22:34:18.383Z,92.59
2022-08-21T22:36:55.532Z,93.98
2022-08-21T22:39:27.508Z,92.78
2022-08-21T22:41:55.032Z,92.71
2022-08-21T22:44:27.253Z,92.82
2022-08-21T22:46:57.429Z,93.93
2022-08-21T22:49:38.578Z,94.46
2022-08-21T22:52:29.229Z,93.18
2022-08-21T22:55:36.052Z,92.38
2022-08-21T22:58:08.788Z,89.76
2022-08-21T23:00:54.487Z,91.52
2022-08-21T23:03:33.456Z,91.42
2022-08-21T23:06:12.907Z,92.69
2022-08-21T23:08:40.873Z,94.27
2022-08-21T23:11:20.850Z,91.26
2022-08-21T23:13:51.591Z,92.28
2022-08-21T23:16:37.704Z,90.62
2022-08-21T23:19:11.408Z,89.28
2022-08-21T23:22:01.577Z,91.13
2022-08-21T23:24:35.202Z,91.02
2022-08-21T23:27:24.957Z,88.87
2022-08-21T23:30:08.802Z,89.08
2022-08-21T23:32:58.356Z,86.45
2022-08-21T23:35:58.838Z,89.34
2022-08-21T23:38:40.027Z,87.57
2022-08-21T23:41:18.776Z,86.73
2022-08-21T23:44:15.049Z,86.00
2022-08-21T23:47:22.372Z,85.60
2022-08-21T23:50:01.446Z,88.51
2022-08-21T23:53:09.192Z,89.06
2022-08-21T23:55:55.562Z,88.79
2022-08-21T23:58:46.487Z,87.12
